createdAt,value
2018-10-12T00:00:38.160Z,101133.52
2018-10-12T00:03:06.611Z,101134.58
2018-10-12T00:05:34.724Z,101140.59
2018-10-12T00:08:02.869Z,101139.63
2018-10-12T00:10:30.992Z,101141.61
2018-10-12T00:12:59.089Z,101146.19
2018-10-12T00:15:27.213Z,101145.62
2018-10-12T00:17:55.712Z,101143.77
2018-10-12T00:20:23.828Z,101143.77
2018-10-12T00:22:51.962Z,101145.19
2018-10-12T00:25:20.115Z,101153.70
2018-10-12T00:27:48.237Z,101152.21
2018-10-12T00:30:16.340Z,101156.63
2018-10-12T00:32:44.696Z,101151.74
2018-10-12T00:35:12.820Z,101150.42
2018-10-12T00:37:40.934Z,101153.71
2018-10-12T00:40:09.037Z,101159.44
2018-10-12T00:42:37.143Z,101162.64
2018-10-12T00:45:05.353Z,101168.84
2018-10-12T00:47:33.485Z,101169.88
2018-10-12T00:50:01.640Z,101173.07
2018-10-12T00:52:29.793Z,101169.41
2018-10-12T00:54:57.964Z,101167.05
2018-10-12T00:57:26.097Z,101172.16
2018-10-12T00:59:54.225Z,101168.50
2018-10-12T01:02:22.376Z,101170.94
2018-10-12T01:04:55.862Z,101174.03
2018-10-12T01:07:23.980Z,101171.22
2018-10-12T01:09:56.527Z,101180.07
2018-10-12T01:12:40.246Z,101173.50
2018-10-12T01:15:08.361Z,101174.81
2018-10-12T01:17:37.095Z,101176.41
2018-10-12T01:20:05.905Z,101174.52
2018-10-12T01:22:34.073Z,101171.15
2018-10-12T01:25:03.273Z,101174.22
2018-10-12T01:27:31.660Z,101186.16
2018-10-12T01:30:00.026Z,101186.34
2018-10-12T01:32:33.706Z,101187.77
2018-10-12T01:35:01.875Z,101191.14
2018-10-12T01:37:30.068Z,101187.48
2018-10-12T01:39:58.209Z,101189.25
2018-10-12T01:42:26.333Z,101182.87
2018-10-12T01:44:54.464Z,101191.67
2018-10-12T01:47:22.576Z,101203.89
2018-10-12T01:49:50.683Z,101198.63
2018-10-12T01:52:18.800Z,101205.00
2018-10-12T01:54:46.917Z,101207.34
2018-10-12T01:57:15.016Z,101206.97
2018-10-12T01:59:43.145Z,101197.48
2018-10-12T02:02:11.248Z,101186.64
2018-10-12T02:04:39.369Z,101187.55
2018-10-12T02:07:07.512Z,101186.42
2018-10-12T02:09:35.639Z,101186.25
2018-10-12T02:12:03.760Z,101191.39
2018-10-12T02:14:32.092Z,101179.95
2018-10-12T02:17:00.466Z,101187.93
2018-10-12T02:19:28.575Z,101197.50
2018-10-12T02:21:56.693Z,101203.66
2018-10-12T02:24:24.869Z,101204.42
2018-10-12T02:26:53.014Z,101194.31
2018-10-12T02:29:21.138Z,101186.62
2018-10-12T02:31:49.256Z,101190.17
2018-10-12T02:34:17.365Z,101193.47
2018-10-12T02:36:45.536Z,101199.14
2018-10-12T02:39:14.986Z,101201.48
2018-10-12T02:41:43.101Z,101210.34
2018-10-12T02:44:11.761Z,101212.98
2018-10-12T02:46:39.926Z,101208.20
2018-10-12T02:49:08.148Z,101213.70
2018-10-12T02:51:36.350Z,101213.36
2018-10-12T02:54:04.465Z,101206.50
2018-10-12T02:56:32.590Z,101206.50
2018-10-12T02:59:00.756Z,101214.17
2018-10-12T03:01:28.881Z,101218.06
2018-10-12T03:03:57.000Z,101221.44
2018-10-12T03:06:25.138Z,101225.75
2018-10-12T03:08:53.345Z,101234.73
2018-10-12T03:11:21.488Z,101237.19
2018-10-12T03:13:49.993Z,101243.08
2018-10-12T03:16:18.124Z,101234.47
2018-10-12T03:18:46.240Z,101240.14
2018-10-12T03:21:14.349Z,101245.50
2018-10-12T03:23:42.431Z,101253.75
2018-10-12T03:26:10.548Z,101255.06
2018-10-12T03:28:38.664Z,101254.03
2018-10-12T03:31:07.189Z,101255.13
2018-10-12T03:33:35.569Z,101256.95
2018-10-12T03:36:04.193Z,101257.69
2018-10-12T03:38:32.316Z,101262.20
2018-10-12T03:41:00.408Z,101255.67
2018-10-12T03:43:28.529Z,101261.44
2018-10-12T03:45:56.653Z,101252.45
2018-10-12T03:48:24.765Z,101256.09
2018-10-12T03:50:52.877Z,101256.52
2018-10-12T03:53:20.985Z,101242.84
2018-10-12T03:55:49.085Z,101242.32
2018-10-12T03:58:17.219Z,101235.92
2018-10-12T04:00:45.352Z,101236.39
2018-10-12T04:03:13.497Z,101238.20
2018-10-12T04:05:41.605Z,101243.72
2018-10-12T04:08:09.736Z,101245.41
2018-10-12T04:10:37.868Z,101244.91
2018-10-12T04:13:05.995Z,101248.91
2018-10-12T04:15:34.153Z,101248.09
2018-10-12T04:18:02.292Z,101247.27
2018-10-12T04:20:30.403Z,101245.38
2018-10-12T04:22:58.509Z,101241.70
2018-10-12T04:25:26.655Z,101243.23
2018-10-12T04:27:54.760Z,101242.02
2018-10-12T04:30:22.877Z,101243.14
2018-10-12T04:32:50.997Z,101249.52
2018-10-12T04:35:19.127Z,101252.34
2018-10-12T04:37:47.266Z,101255.92
2018-10-12T04:40:26.124Z,101256.49
2018-10-12T04:42:54.369Z,101269.23
2018-10-12T04:45:22.921Z,101277.47
2018-10-12T04:47:51.220Z,101277.09
2018-10-12T04:50:19.378Z,101275.16
2018-10-12T04:52:47.525Z,101270.44
2018-10-12T04:55:15.627Z,101278.72
2018-10-12T04:57:43.768Z,101281.27
2018-10-12T05:00:11.893Z,101286.38
2018-10-12T05:02:40.030Z,101287.78
2018-10-12T05:05:08.169Z,101294.81
2018-10-12T05:07:36.272Z,101298.97
2018-10-12T05:10:04.405Z,101295.80
2018-10-12T05:12:32.499Z,101293.08
2018-10-12T05:15:00.609Z,101299.93
2018-10-12T05:17:28.759Z,101306.58
2018-10-12T05:19:56.856Z,101310.77
2018-10-12T05:22:25.035Z,101311.70
2018-10-12T05:24:53.188Z,101315.39
2018-10-12T05:27:21.324Z,101320.46
2018-10-12T05:29:49.452Z,101330.47
2018-10-12T05:32:17.547Z,101335.25
2018-10-12T05:34:45.683Z,101326.80
2018-10-12T05:37:13.794Z,101318.65
2018-10-12T05:39:41.918Z,101318.41
2018-10-12T05:42:09.997Z,101324.06
2018-10-12T05:44:38.124Z,101326.91
2018-10-12T05:47:06.238Z,101338.86
2018-10-12T05:49:45.633Z,101345.09
2018-10-12T05:52:13.721Z,101340.23
2018-10-12T05:54:41.869Z,101337.25
2018-10-12T05:57:09.985Z,101332.37
2018-10-12T05:59:38.118Z,101329.92
2018-10-12T06:02:06.404Z,101338.80
2018-10-12T06:04:34.507Z,101339.73
2018-10-12T06:07:02.575Z,101345.81
2018-10-12T06:09:30.759Z,101347.97
2018-10-12T06:11:58.844Z,101353.85
2018-10-12T06:14:26.940Z,101364.60
2018-10-12T06:16:55.016Z,101384.42
2018-10-12T06:19:23.137Z,101407.79
2018-10-12T06:21:51.240Z,101416.21
2018-10-12T06:24:19.359Z,101425.23
2018-10-12T06:26:47.624Z,101428.48
2018-10-12T06:29:15.658Z,101433.66
2018-10-12T06:31:43.757Z,101439.13
2018-10-12T06:34:11.861Z,101445.46
2018-10-12T06:36:39.984Z,101449.25
2018-10-12T06:39:08.140Z,101446.81
2018-10-12T06:41:36.383Z,101450.06
2018-10-12T06:44:04.395Z,101458.39
2018-10-12T06:46:32.553Z,101454.09
2018-10-12T06:49:00.679Z,101458.80
2018-10-12T06:51:28.805Z,101449.36
2018-10-12T06:53:57.035Z,101448.95
2018-10-12T06:56:25.068Z,101444.60
2018-10-12T06:58:53.216Z,101452.78
2018-10-12T07:01:21.365Z,101455.41
2018-10-12T07:03:50.118Z,101454.94
2018-10-12T07:06:18.228Z,101467.47
2018-10-12T07:08:46.396Z,101467.27
2018-10-12T07:11:14.514Z,101470.30
2018-10-12T07:13:42.663Z,101476.02
2018-10-12T07:16:10.765Z,101475.94
2018-10-12T07:18:38.893Z,101485.19
2018-10-12T07:21:07.079Z,101488.70
2018-10-12T07:23:35.164Z,101491.13
2018-10-12T07:26:03.354Z,101497.22
2018-10-12T07:28:31.423Z,101504.20
2018-10-12T07:30:59.536Z,101502.10
2018-10-12T07:33:27.613Z,101501.75
2018-10-12T07:35:55.716Z,101495.13
2018-10-12T07:38:23.834Z,101503.86
2018-10-12T07:40:51.970Z,101502.57
2018-10-12T07:43:20.057Z,101502.20
2018-10-12T07:45:48.172Z,101509.44
2018-10-12T07:48:16.312Z,101508.77
2018-10-12T07:50:44.393Z,101497.38
2018-10-12T07:53:12.518Z,101497.84
2018-10-12T07:55:40.609Z,101503.72
2018-10-12T07:58:08.740Z,101502.55
2018-10-12T08:00:36.881Z,101503.60
2018-10-12T08:03:04.953Z,101506.24
2018-10-12T08:05:33.072Z,101511.77
2018-10-12T08:08:01.144Z,101519.50
2018-10-12T08:10:29.285Z,101530.08
2018-10-12T08:12:57.397Z,101529.92
2018-10-12T08:15:25.485Z,101524.72
2018-10-12T08:17:53.575Z,101528.92
2018-10-12T08:20:21.718Z,101523.27
2018-10-12T08:22:49.821Z,101525.75
2018-10-12T08:25:17.936Z,101525.45
2018-10-12T08:27:46.049Z,101530.00
2018-10-12T08:30:14.192Z,101532.63
2018-10-12T08:32:42.320Z,101545.55
2018-10-12T08:35:10.457Z,101550.16
2018-10-12T08:37:38.573Z,101559.20
2018-10-12T08:40:06.990Z,101563.16
2018-10-12T08:42:35.087Z,101571.05
2018-10-12T08:45:03.202Z,101571.67
2018-10-12T08:47:31.392Z,101571.86
2018-10-12T08:49:59.538Z,101575.53
2018-10-12T08:52:27.701Z,101587.20
2018-10-12T08:54:55.850Z,101578.52
2018-10-12T08:57:24.048Z,101574.55
2018-10-12T08:59:52.165Z,101580.86
2018-10-12T09:02:20.401Z,101587.05
2018-10-12T09:04:48.558Z,101587.89
2018-10-12T09:07:16.744Z,101594.45
2018-10-12T09:09:44.944Z,101603.84
2018-10-12T09:12:13.074Z,101604.89
2018-10-12T09:14:41.223Z,101615.85
2018-10-12T09:17:09.390Z,101615.85
2018-10-12T09:19:37.511Z,101617.44
2018-10-12T09:22:05.669Z,101619.80
2018-10-12T09:24:33.833Z,101625.11
2018-10-12T09:27:01.960Z,101612.23
2018-10-12T09:29:30.181Z,101613.80
2018-10-12T09:31:58.322Z,101618.27
2018-10-12T09:34:26.434Z,101616.56
2018-10-12T09:36:54.627Z,101630.81
2018-10-12T09:39:22.728Z,101624.17
2018-10-12T09:41:50.860Z,101623.33
2018-10-12T09:44:19.025Z,101623.45
2018-10-12T09:46:47.202Z,101625.47
2018-10-12T09:49:15.370Z,101633.92
2018-10-12T09:51:43.560Z,101631.02
2018-10-12T09:54:11.821Z,101633.14
2018-10-12T09:56:40.018Z,101637.49
2018-10-12T09:59:08.169Z,101643.05
2018-10-12T10:01:41.608Z,101636.05
2018-10-12T10:04:15.201Z,101627.82
2018-10-12T10:06:43.363Z,101622.25
2018-10-12T10:09:11.503Z,101625.82
2018-10-12T10:11:39.653Z,101621.45
2018-10-12T10:14:07.809Z,101627.50
2018-10-12T10:16:36.137Z,101621.57
2018-10-12T10:19:04.371Z,101621.39
2018-10-12T10:21:32.456Z,101623.81
2018-10-12T10:24:00.615Z,101617.17
2018-10-12T10:26:28.982Z,101612.61
2018-10-12T10:28:57.165Z,101620.08
2018-10-12T10:31:25.306Z,101618.23
2018-10-12T10:33:53.449Z,101618.88
2018-10-12T10:36:21.608Z,101613.69
2018-10-12T10:38:49.801Z,101620.30
2018-10-12T10:41:18.243Z,101623.88
2018-10-12T10:43:46.380Z,101623.78
2018-10-12T10:46:14.569Z,101629.13
2018-10-12T10:48:42.689Z,101626.37
2018-10-12T10:51:10.805Z,101616.00
2018-10-12T10:53:39.334Z,101612.91
2018-10-12T10:56:07.587Z,101614.10
2018-10-12T10:58:35.836Z,101615.16
2018-10-12T11:01:04.073Z,101614.38
2018-10-12T11:03:32.113Z,101614.15
2018-10-12T11:06:00.310Z,101614.11
2018-10-12T11:08:28.445Z,101610.82
2018-10-12T11:10:56.860Z,101611.48
2018-10-12T11:13:25.171Z,101616.55
2018-10-12T11:15:53.305Z,101611.48
2018-10-12T11:18:21.486Z,101617.20
2018-10-12T11:20:49.685Z,101611.03
2018-10-12T11:23:17.892Z,101605.30
2018-10-12T11:25:46.057Z,101609.91
2018-10-12T11:28:14.400Z,101604.18
2018-10-12T11:30:42.620Z,101603.64
2018-10-12T11:33:10.788Z,101610.38
2018-10-12T11:35:38.916Z,101603.25
2018-10-12T11:38:08.720Z,101607.17
2018-10-12T11:40:36.968Z,101614.06
2018-10-12T11:43:16.393Z,101608.23
2018-10-12T11:45:44.593Z,101612.86
2018-10-12T11:48:12.754Z,101602.98
2018-10-12T11:50:40.860Z,101606.27
2018-10-12T11:53:09.056Z,101593.16
2018-10-12T11:55:37.132Z,101600.72
2018-10-12T11:58:05.253Z,101592.18
2018-10-12T12:00:34.636Z,101594.29
2018-10-12T12:03:02.798Z,101596.95
2018-10-12T12:05:30.901Z,101595.13
2018-10-12T12:07:59.053Z,101589.36
2018-10-12T12:10:27.201Z,101583.67
2018-10-12T12:12:55.369Z,101591.41
2018-10-12T12:15:23.497Z,101583.98
2018-10-12T12:17:51.598Z,101580.61
2018-10-12T12:20:19.719Z,101584.67
2018-10-12T12:22:47.842Z,101592.61
2018-10-12T12:25:16.000Z,101594.61
2018-10-12T12:27:44.153Z,101586.25
2018-10-12T12:30:12.281Z,101594.18
2018-10-12T12:32:40.428Z,101593.59
2018-10-12T12:35:08.922Z,101594.23
2018-10-12T12:37:36.709Z,101594.88
2018-10-12T12:40:04.939Z,101588.19
2018-10-12T12:42:33.110Z,101587.84
2018-10-12T12:45:01.232Z,101588.70
2018-10-12T12:47:29.385Z,101592.61
2018-10-12T12:49:57.460Z,101595.94
2018-10-12T12:52:25.565Z,101601.54
2018-10-12T12:54:53.755Z,101600.95
2018-10-12T12:57:21.836Z,101611.30
2018-10-12T12:59:49.928Z,101613.25
2018-10-12T13:02:18.053Z,101617.88
2018-10-12T13:04:46.172Z,101617.83
2018-10-12T13:07:14.301Z,101620.90
2018-10-12T13:09:42.381Z,101623.13
2018-10-12T13:12:10.525Z,101629.22
2018-10-12T13:14:38.665Z,101632.44
2018-10-12T13:17:06.833Z,101634.89
2018-10-12T13:19:34.948Z,101634.09
2018-10-12T13:22:03.096Z,101635.06
2018-10-12T13:24:37.968Z,101629.93
2018-10-12T13:27:06.246Z,101639.05
2018-10-12T13:29:34.397Z,101637.95
2018-10-12T13:32:02.656Z,101639.61
2018-10-12T13:34:30.809Z,101639.20
2018-10-12T13:36:58.941Z,101648.59
2018-10-12T13:39:27.094Z,101644.84
2018-10-12T13:41:55.373Z,101646.17
2018-10-12T13:44:23.524Z,101634.56
2018-10-12T13:46:51.673Z,101633.36
2018-10-12T13:49:19.846Z,101637.75
2018-10-12T13:54:22.384Z,101627.16
2018-10-12T13:56:54.624Z,101626.39
2018-10-12T13:59:22.731Z,101627.97
2018-10-12T14:01:50.858Z,101627.21
2018-10-12T14:04:19.001Z,101629.94
2018-10-12T14:06:47.234Z,101629.10
2018-10-12T14:09:15.375Z,101632.04
2018-10-12T14:11:43.567Z,101628.81
2018-10-12T14:14:11.797Z,101626.63
2018-10-12T14:16:39.992Z,101628.00
2018-10-12T14:19:08.376Z,101625.94
2018-10-12T14:21:44.049Z,101631.05
2018-10-12T14:24:12.313Z,101635.58
2018-10-12T14:26:40.577Z,101635.64
2018-10-12T14:29:08.768Z,101628.69
2018-10-12T14:31:37.020Z,101630.31
2018-10-12T14:34:05.209Z,101631.09
2018-10-12T14:36:33.539Z,101635.98
2018-10-12T14:39:01.672Z,101642.97
2018-10-12T14:41:29.952Z,101638.88
2018-10-12T14:43:58.229Z,101640.94
2018-10-12T14:46:26.373Z,101641.48
2018-10-12T14:48:54.685Z,101644.20
2018-10-12T14:51:23.002Z,101644.34
2018-10-12T14:53:51.210Z,101643.37
2018-10-12T14:56:19.447Z,101645.97
2018-10-12T14:58:47.576Z,101648.17
2018-10-12T15:01:15.677Z,101644.45
2018-10-12T15:03:43.856Z,101644.92
2018-10-12T15:06:11.994Z,101639.66
2018-10-12T15:08:40.141Z,101648.58
2018-10-12T15:11:08.586Z,101643.37
2018-10-12T15:13:36.769Z,101640.39
2018-10-12T15:16:04.918Z,101644.95
2018-10-12T15:18:33.089Z,101652.78
2018-10-12T15:21:01.335Z,101647.70
2018-10-12T15:23:29.402Z,101656.31
2018-10-12T15:25:57.818Z,101659.96
2018-10-12T15:28:25.952Z,101662.27
2018-10-12T15:30:54.073Z,101666.81
2018-10-12T15:33:22.256Z,101667.16
2018-10-12T15:35:50.385Z,101661.69
2018-10-12T15:38:18.622Z,101664.37
2018-10-12T15:40:46.785Z,101670.91
2018-10-12T15:43:14.978Z,101666.17
2018-10-12T15:45:43.153Z,101674.84
2018-10-12T15:48:11.347Z,101673.99
2018-10-12T15:50:39.492Z,101677.14
2018-10-12T15:53:07.677Z,101677.80
2018-10-12T15:55:35.829Z,101679.75
2018-10-12T15:58:03.994Z,101685.48
2018-10-12T16:00:32.124Z,101681.75
2018-10-12T16:03:00.231Z,101686.02
2018-10-12T16:05:28.428Z,101689.00
2018-10-12T16:07:56.622Z,101692.91
2018-10-12T16:10:25.632Z,101693.32
2018-10-12T16:12:53.781Z,101702.23
2018-10-12T16:15:21.923Z,101698.03
2018-10-12T16:17:50.097Z,101697.96
2018-10-12T16:20:18.225Z,101700.50
2018-10-12T16:22:46.396Z,101705.64
2018-10-12T16:25:25.809Z,101712.77
2018-10-12T16:27:53.984Z,101704.64
2018-10-12T16:30:22.184Z,101710.44
2018-10-12T16:32:50.321Z,101711.05
2018-10-12T16:35:18.493Z,101710.07
2018-10-12T16:37:46.701Z,101711.30
2018-10-12T16:40:14.858Z,101710.45
2018-10-12T16:42:42.992Z,101717.45
2018-10-12T16:45:11.144Z,101718.15
2018-10-12T16:47:39.285Z,101717.17
2018-10-12T16:50:07.473Z,101721.37
2018-10-12T16:52:35.675Z,101718.37
2018-10-12T16:55:03.864Z,101723.17
2018-10-12T16:57:35.146Z,101726.48
2018-10-12T17:00:03.256Z,101724.16
2018-10-12T17:02:31.392Z,101724.68
2018-10-12T17:04:59.492Z,101721.00
2018-10-12T17:07:27.608Z,101721.33
2018-10-12T17:09:55.960Z,101721.27
2018-10-12T17:12:24.162Z,101722.66
2018-10-12T17:14:52.278Z,101723.70
2018-10-12T17:17:20.425Z,101724.29
2018-10-12T17:19:48.611Z,101725.94
2018-10-12T17:22:17.224Z,101724.80
2018-10-12T17:24:45.339Z,101726.39
2018-10-12T17:27:13.692Z,101725.84
2018-10-12T17:29:41.860Z,101725.20
2018-10-12T17:32:10.025Z,101724.47
2018-10-12T17:34:38.181Z,101733.88
2018-10-12T17:37:06.341Z,101724.14
2018-10-12T17:39:34.567Z,101725.37
2018-10-12T17:42:11.677Z,101729.55
2018-10-12T17:44:40.076Z,101729.55
2018-10-12T17:47:08.380Z,101732.83
2018-10-12T17:49:36.605Z,101734.36
2018-10-12T17:52:04.782Z,101735.98
2018-10-12T17:54:33.070Z,101737.66
2018-10-12T17:57:01.564Z,101738.81
2018-10-12T17:59:29.705Z,101742.30
2018-10-12T18:01:57.878Z,101741.53
2018-10-12T18:04:26.086Z,101742.67
2018-10-12T18:06:54.253Z,101744.36
2018-10-12T18:09:22.509Z,101741.23
2018-10-12T18:11:50.689Z,101746.42
2018-10-12T18:14:18.912Z,101747.19
2018-10-12T18:16:47.000Z,101741.95
2018-10-12T18:19:15.228Z,101747.75
2018-10-12T18:21:43.373Z,101744.38
2018-10-12T18:24:11.631Z,101740.59
2018-10-12T18:26:39.775Z,101742.58
2018-10-12T18:29:08.060Z,101743.91
2018-10-12T18:31:36.291Z,101742.70
2018-10-12T18:34:04.414Z,101745.16
2018-10-12T18:36:33.077Z,101747.38
2018-10-12T18:39:01.265Z,101745.34
2018-10-12T18:41:29.393Z,101748.31
2018-10-12T18:43:57.766Z,101740.61
2018-10-12T18:46:26.393Z,101747.79
2018-10-12T18:48:54.580Z,101743.61
2018-10-12T18:51:22.718Z,101739.84
2018-10-12T18:53:50.851Z,101741.03
2018-10-12T18:56:18.982Z,101741.46
2018-10-12T18:58:47.177Z,101742.02
2018-10-12T19:01:15.353Z,101741.45
2018-10-12T19:03:43.484Z,101747.11
2018-10-12T19:06:11.806Z,101748.27
2018-10-12T19:08:39.937Z,101746.92
2018-10-12T19:11:08.415Z,101742.86
2018-10-12T19:13:36.632Z,101747.81
2018-10-12T19:16:04.680Z,101748.53
2018-10-12T19:18:32.818Z,101746.09
2018-10-12T19:21:01.010Z,101742.50
2018-10-12T19:23:30.382Z,101738.43
2018-10-12T19:25:58.424Z,101742.40
2018-10-12T19:28:26.580Z,101744.47
2018-10-12T19:30:54.709Z,101745.92
2018-10-12T19:33:22.844Z,101736.48
2018-10-12T19:35:50.958Z,101738.06
2018-10-12T19:38:19.135Z,101741.84
2018-10-12T19:40:47.354Z,101741.48
2018-10-12T19:43:15.499Z,101749.11
2018-10-12T19:45:43.634Z,101745.48
2018-10-12T19:48:11.762Z,101752.08
2018-10-12T19:50:39.906Z,101746.06
2018-10-12T19:53:08.064Z,101751.81
2018-10-12T19:55:36.200Z,101749.42
2018-10-12T19:58:04.364Z,101750.88
2018-10-12T20:00:32.493Z,101757.64
2018-10-12T20:03:00.618Z,101748.73
2018-10-12T20:05:28.748Z,101743.25
2018-10-12T20:07:56.899Z,101741.82
2018-10-12T20:10:25.172Z,101747.80
2018-10-12T20:12:53.498Z,101747.97
2018-10-12T20:15:21.684Z,101747.09
2018-10-12T20:17:50.153Z,101740.71
2018-10-12T20:20:18.229Z,101753.03
2018-10-12T20:22:46.392Z,101754.88
2018-10-12T20:25:14.529Z,101759.92
2018-10-12T20:27:42.697Z,101754.36
2018-10-12T20:30:10.835Z,101760.60
2018-10-12T20:32:38.950Z,101764.20
2018-10-12T20:35:07.125Z,101761.89
2018-10-12T20:37:35.285Z,101761.95
2018-10-12T20:40:03.434Z,101766.69
2018-10-12T20:42:31.916Z,101761.28
2018-10-12T20:45:00.986Z,101768.01
2018-10-12T20:47:29.178Z,101773.42
2018-10-12T20:49:57.340Z,101768.56
2018-10-12T20:52:25.454Z,101776.11
2018-10-12T20:54:53.564Z,101776.01
2018-10-12T20:57:21.686Z,101768.06
2018-10-12T20:59:51.389Z,101774.00
2018-10-12T21:02:20.107Z,101774.17
2018-10-12T21:04:48.335Z,101776.48
2018-10-12T21:07:18.515Z,101772.24
2018-10-12T21:09:46.630Z,101763.05
2018-10-12T21:12:14.761Z,101763.69
2018-10-12T21:14:43.308Z,101765.73
2018-10-12T21:17:13.522Z,101767.12
2018-10-12T21:19:41.644Z,101763.02
2018-10-12T21:22:09.846Z,101753.25
2018-10-12T21:24:37.977Z,101756.10
2018-10-12T21:27:06.716Z,101754.88
2018-10-12T21:29:34.823Z,101754.30
2018-10-12T21:32:02.973Z,101755.80
2018-10-12T21:34:31.113Z,101755.42
2018-10-12T21:36:59.241Z,101756.51
2018-10-12T21:39:27.397Z,101760.92
2018-10-12T21:41:55.504Z,101750.34
2018-10-12T21:44:23.633Z,101754.84
2018-10-12T21:46:51.769Z,101744.84
2018-10-12T21:49:19.908Z,101752.50
2018-10-12T21:51:48.058Z,101755.66
2018-10-12T21:54:16.209Z,101748.53
2018-10-12T21:56:44.368Z,101755.08
2018-10-12T21:59:12.474Z,101754.51
2018-10-12T22:01:40.600Z,101753.73
2018-10-12T22:04:08.749Z,101751.12
2018-10-12T22:06:36.895Z,101756.03
2018-10-12T22:09:07.861Z,101748.06
2018-10-12T22:11:36.024Z,101756.10
2018-10-12T22:14:04.771Z,101746.84
2018-10-12T22:16:32.806Z,101740.59
2018-10-12T22:19:00.941Z,101748.70
2018-10-12T22:21:29.048Z,101743.28
2018-10-12T22:23:57.404Z,101741.34
2018-10-12T22:26:25.526Z,101748.06
2018-10-12T22:28:53.665Z,101749.95
2018-10-12T22:31:21.776Z,101752.60
2018-10-12T22:38:47.760Z,101742.66
2018-10-12T22:41:15.909Z,101744.47
2018-10-12T22:43:44.054Z,101741.02
2018-10-12T22:46:12.161Z,101744.97
2018-10-12T22:48:40.301Z,101741.86
2018-10-12T22:51:08.395Z,101744.70
2018-10-12T22:53:36.669Z,101745.94
2018-10-12T22:56:04.972Z,101741.70
2018-10-12T22:58:33.120Z,101740.54
2018-10-12T23:01:01.230Z,101735.76
2018-10-12T23:03:29.344Z,101734.72
2018-10-12T23:05:57.473Z,101733.02
2018-10-12T23:08:25.598Z,101741.69
2018-10-12T23:10:53.740Z,101739.52
2018-10-12T23:13:21.855Z,101739.34
2018-10-12T23:15:49.997Z,101735.28
2018-10-12T23:18:18.136Z,101738.41
2018-10-12T23:20:46.262Z,101740.48
2018-10-12T23:23:14.373Z,101739.44
2018-10-12T23:25:42.505Z,101733.39
2018-10-12T23:28:10.665Z,101733.59
2018-10-12T23:30:38.762Z,101734.44
2018-10-12T23:33:18.196Z,101737.17
2018-10-12T23:35:46.313Z,101735.96
2018-10-12T23:38:14.442Z,101736.34
2018-10-12T23:40:42.597Z,101733.03
2018-10-12T23:43:10.748Z,101734.06
2018-10-12T23:45:38.859Z,101736.99
2018-10-12T23:48:07.013Z,101741.59
2018-10-12T23:50:35.113Z,101742.82
2018-10-12T23:53:03.256Z,101740.75
2018-10-12T23:55:31.358Z,101750.08
2018-10-12T23:57:59.460Z,101746.80
